• Join FlightAware (Why Join?)
  • Login
  • US Flag 
11:49PM EST


 

Airport Tracker/Info


-or-


 

Live Flight TrackerFlight Track Log ✈ SKW4772 ✈ 30-Apr-2012 ✈ KMSP - KSBN

Flight Track Log - Related Links

Times and Time Zones

All times are in EDT time to prevent confusion due to time zone crossing. See the SKW4772 flight status page for this flight to view local times or setup timezone preferences in your user account.

Time Position Orientation Groundspeed Altitude Reporting Facility
EDT Latitude Longitude Course Direction KTS MPH feet Rate Location/Type
02:14PM 44.9281 -93.2397 North 186 214 2,800  Level FAA TRACON SMA TRACON (SMA)
02:15PM 44.9642 -93.2333 30° Northeast 216 249 4,500 2,160 Climbing FAA TRACON SMA TRACON (SMA)
02:16PM 45.0058 -93.1989 77° East 282 325 5,700 2,460 Climbing FAA TRACON SMA TRACON (SMA)
02:16PM 45.0192 -93.1181 73° East 308 354 7,800 2,940 Climbing FAA TRACON SMA TRACON (SMA)
02:17PM 45.0342 -93.0464 109° East 310 357 9,700 2,760 Climbing FAA TRACON SMA TRACON (SMA)
02:18PM 45.0150 -92.9692 130° Southeast 320 368 11,500 2,100 Climbing FAA TRACON SMA TRACON (SMA)
02:18PM 44.9792 -92.9086 130° Southeast 327 376 12,500 1,860 Climbing FAA TRACON SMA TRACON (SMA)
02:19PM 44.9356 -92.8361 129° Southeast 349 402 14,000 2,280 Climbing FAA TRACON SMA TRACON (SMA)
02:20PM 44.8931 -92.7631 129° Southeast 351 404 15,600 1,980 Climbing FAA TRACON SMA TRACON (SMA)
02:20PM 44.8500 -92.6892 130° Southeast 354 407 16,700 1,680 Climbing FAA TRACON SMA TRACON (SMA)
02:21PM 44.8106 -92.6219 130° Southeast 363 418 17,900 1,620 Climbing FAA TRACON SMA TRACON (SMA)
02:22PM 44.7650 -92.5453 130° Southeast 370 426 18,900 1,440 Climbing FAA TRACON SMA TRACON (SMA)
02:22PM 44.7236 -92.4753 129° Southeast 379 436 19,800 1,260 Climbing FAA TRACON SMA TRACON (SMA)
02:23PM 44.6758 -92.3936 130° Southeast 391 450 20,600 1,560 Climbing FAA TRACON SMA TRACON (SMA)
02:24PM 44.6272 -92.3125 129° Southeast 392 451 21,900 1,500 Climbing FAA TRACON SMA TRACON (SMA)
02:24PM 44.5850 -92.2397 126° Southeast 392 451 22,700 1,260 Climbing FAA TRACON SMA TRACON (SMA)
02:25PM 44.5403 -92.1544 126° Southeast 395 455 23,600 1,200 Climbing FAA TRACON SMA TRACON (SMA)
02:26PM 44.4944 -92.0667 124° Southeast 404 465 24,300 960 Climbing FAA TRACON SMA TRACON (SMA)
02:26PM 44.4550 -91.9861 128° Southeast 410 472 24,900 1,020 Climbing FAA TRACON SMA TRACON (SMA)
02:28PM 44.3592 -91.8133 118° Southeast 410 472 26,400 900 Climbing Minneapolis Center
02:29PM 44.3092 -91.6842 120° Southeast 410 472 27,100 600 Climbing Minneapolis Center
02:30PM 44.2528 -91.5469 117° Southeast 405 466 27,700 540 Climbing Minneapolis Center
02:31PM 44.1961 -91.3953 118° Southeast 415 478 28,200 540 Climbing Minneapolis Center
02:32PM 44.1369 -91.2411 119° Southeast 434 499 28,800 720 Climbing Minneapolis Center
02:33PM 44.0894 -91.1211 117° Southeast 436 502 29,500 840 Climbing Chicago Center
02:34PM 44.0333 -90.9664 121° Southeast 428 493 30,300 780 Climbing Chicago Center
02:35PM 43.9686 -90.8178 123° Southeast 439 505 31,100 720 Climbing Chicago Center
02:36PM 43.9097 -90.6922 122° Southeast 444 511 31,800 600 Climbing Chicago Center
02:37PM 43.8447 -90.5497 122° Southeast 439 505 32,400 600 Climbing Chicago Center
02:38PM 43.7814 -90.4106 122° Southeast 439 505 33,000 300 Climbing Chicago Center
02:39PM 43.7097 -90.2544 122° Southeast 439 505 33,000 -180 Level Chicago Center
02:40PM 43.6483 -90.1214 123° Southeast 426 490 32,700 -720 Descending Chicago Center
02:41PM 43.5867 -89.9889 123° Southeast 419 482 31,600 -900 Descending Chicago Center
02:42PM 43.5308 -89.8708 123° Southeast 414 476 31,000 -300 Descending Chicago Center
02:43PM 43.4731 -89.7475 123° Southeast 401 461 31,000  Level Chicago Center
02:44PM 43.4172 -89.6300 124° Southeast 386 444 31,000  Level Chicago Center
02:45PM 43.3589 -89.5125 122° Southeast 379 436 31,000  Level Chicago Center
02:46PM 43.3028 -89.3897 124° Southeast 379 436 31,000  Level Chicago Center
02:47PM 43.2444 -89.2728 122° Southeast 374 430 31,000  Level Chicago Center
02:48PM 43.1881 -89.1506 124° Southeast 379 436 31,000  Level Chicago Center
02:49PM 43.1294 -89.0311 123° Southeast 384 442 31,000  Level Chicago Center
02:50PM 43.0708 -88.9094 123° Southeast 384 442 31,000  Level Chicago Center
02:51PM 43.0056 -88.7708 124° Southeast 389 448 31,000 -300 Level Chicago Center
02:52PM 42.9444 -88.6492 123° Southeast 394 453 30,400 -1,020 Descending Chicago Center
02:53PM 42.8811 -88.5169 124° Southeast 406 467 29,000 -1,440 Descending Chicago Center
02:54PM 42.8175 -88.3875 123° Southeast 412 474 27,600 -1,440 Descending Chicago Center
02:55PM 42.7581 -88.2611 126° Southeast 412 474 26,200 -1,440 Descending Chicago Center
02:56PM 42.6964 -88.1436 124° Southeast 391 450 24,800 -1,440 Descending Chicago Center
02:57PM 42.6389 -88.0261 124° Southeast 380 437 23,400 -900 Descending Chicago Center
02:58PM 42.5833 -87.9144 123° Southeast 370 426 23,000 -600 Descending Chicago Center
02:59PM 42.5297 -87.8031 124° Southeast 363 418 22,200 -1,440 Descending Chicago Center
03:00PM 42.4783 -87.7003 126° Southeast 347 399 20,200 -2,100 Descending Chicago Center
03:01PM 42.4225 -87.5947 123° Southeast 337 388 18,100 -1,620 Descending Chicago Center
03:02PM 42.3708 -87.4867 125° Southeast 337 388 17,000 -600 Descending Chicago Center
03:03PM 42.3233 -87.3953 139° Southeast 337 388 17,000  Level Chicago Center
03:04PM 42.2553 -87.3161 147° Southeast 318 366 17,000  Level Chicago Center
03:05PM 42.1856 -87.2539 112° Southeast 318 366 17,000  Level Chicago Center
03:06PM 42.1519 -87.1400 94° East 318 366 17,000  Level Chicago Center
03:07PM 42.1450 -87.0031 89° East 356 410 17,000 -240 Level Chicago Center
03:08PM 42.1467 -86.8742 94° East 356 410 16,600 -1,800 Descending Chicago Center
03:09PM 42.1392 -86.7317 130° Southeast 361 415 13,400 -2,820 Descending Chicago Center
03:10PM 42.0722 -86.6253 149° Southeast 361 415 11,000 -1,800 Descending Chicago Center
03:11PM 42.0106 -86.5747 147° Southeast 323 372 9,800 -1,440 Descending Chicago Center
03:12PM 41.9467 -86.5189 149° Southeast 301 346 8,200 -1,620 Descending Chicago Center
03:19PM 41.7000 -86.3167 357° North  Level FlightAware Approximate
03:20PM 41.7996 -86.3247 177° South  Level Estimated
03:21PM 41.7000 -86.3167 357° North  Level FlightAware Approximate
03:22PM 41.7792 -86.3230 177° South  Level Estimated
03:23PM 41.7000 -86.3167 357° North  Level FlightAware Approximate
03:24PM 41.7792 -86.3230 357° North  Level Estimated